createdAt,value
2023-05-15T00:00:52.913Z,0.00
2023-05-15T00:01:52.865Z,0.00
2023-05-15T00:02:52.945Z,0.00
2023-05-15T00:03:52.988Z,0.00
2023-05-15T00:04:52.846Z,0.00
2023-05-15T00:05:52.873Z,0.00
2023-05-15T00:06:52.826Z,0.00
2023-05-15T00:07:52.954Z,0.00
2023-05-15T00:08:52.790Z,0.00
2023-05-15T00:09:52.804Z,0.00
2023-05-15T00:11:00.934Z,0.00
2023-05-15T00:11:54.140Z,0.00
2023-05-15T00:12:52.785Z,0.00
2023-05-15T00:13:52.866Z,0.00
2023-05-15T00:14:52.776Z,0.00
2023-05-15T00:15:53.054Z,0.00
2023-05-15T00:16:52.748Z,0.00
2023-05-15T00:17:52.859Z,0.00
2023-05-15T00:18:52.851Z,0.00
2023-05-15T00:19:52.728Z,0.00
2023-05-15T00:20:52.726Z,0.00
2023-05-15T00:21:52.718Z,0.00
2023-05-15T00:22:52.769Z,0.00
2023-05-15T00:23:52.708Z,0.00
2023-05-15T00:24:52.681Z,0.00
2023-05-15T00:25:52.674Z,0.00
2023-05-15T00:26:52.651Z,0.00
2023-05-15T00:27:52.789Z,0.00
2023-05-15T00:28:52.733Z,0.00
2023-05-15T00:29:52.641Z,0.00
2023-05-15T00:30:52.629Z,0.00
2023-05-15T00:31:52.676Z,0.00
2023-05-15T00:32:52.644Z,0.00
2023-05-15T00:33:52.648Z,0.00
2023-05-15T00:34:52.663Z,0.00
2023-05-15T00:35:52.598Z,0.00
2023-05-15T00:36:52.606Z,0.00
2023-05-15T00:37:52.598Z,0.00
2023-05-15T00:38:52.581Z,0.00
2023-05-15T00:39:52.579Z,0.00
2023-05-15T00:40:52.632Z,0.00
2023-05-15T00:41:52.568Z,0.00
2023-05-15T00:42:52.545Z,0.00
2023-05-15T00:43:52.550Z,0.00
2023-05-15T00:44:52.544Z,0.00
2023-05-15T00:45:52.627Z,0.00
2023-05-15T00:46:52.580Z,0.00
2023-05-15T00:47:52.541Z,0.00
2023-05-15T00:48:52.547Z,0.00
2023-05-15T00:49:52.508Z,0.00
2023-05-15T00:50:52.518Z,0.00
2023-05-15T00:51:52.565Z,0.00
2023-05-15T00:52:52.589Z,0.00
2023-05-15T00:53:52.559Z,0.00
2023-05-15T00:54:52.459Z,0.00
2023-05-15T00:55:52.468Z,0.00
2023-05-15T00:56:52.455Z,0.00
2023-05-15T00:57:52.491Z,0.00
2023-05-15T00:58:52.443Z,0.00
2023-05-15T00:59:52.445Z,0.00
2023-05-15T01:00:52.471Z,0.00
2023-05-15T01:01:52.416Z,0.00
2023-05-15T01:02:52.602Z,0.00
2023-05-15T01:03:52.494Z,0.00
2023-05-15T01:04:52.396Z,0.00
2023-05-15T01:05:52.392Z,0.00
2023-05-15T01:06:52.387Z,0.00
2023-05-15T01:07:52.381Z,0.00
2023-05-15T01:08:52.346Z,0.00
2023-05-15T01:09:52.340Z,0.00
2023-05-15T01:10:52.345Z,0.00
2023-05-15T01:11:52.323Z,0.00
2023-05-15T01:12:52.320Z,0.00
2023-05-15T01:13:52.389Z,0.00
2023-05-15T01:14:52.325Z,0.00
2023-05-15T01:15:52.348Z,0.00
2023-05-15T01:16:52.298Z,0.00
2023-05-15T01:17:52.439Z,0.00
2023-05-15T01:18:52.357Z,0.00
2023-05-15T01:19:52.906Z,0.00
2023-05-15T01:20:52.279Z,0.00
2023-05-15T01:21:52.280Z,0.00
2023-05-15T01:22:52.289Z,0.00
2023-05-15T01:23:52.230Z,0.00
2023-05-15T01:24:52.233Z,0.00
2023-05-15T01:25:52.293Z,0.00
2023-05-15T01:26:52.225Z,0.00
2023-05-15T01:27:52.206Z,0.00
2023-05-15T01:28:52.218Z,0.00
2023-05-15T01:29:52.210Z,0.00
2023-05-15T01:30:52.249Z,0.00
2023-05-15T01:31:52.242Z,0.00
2023-05-15T01:32:52.251Z,0.00
2023-05-15T01:33:52.149Z,0.00
2023-05-15T01:34:52.157Z,0.00
2023-05-15T01:35:52.196Z,0.00
2023-05-15T01:36:52.205Z,0.00
2023-05-15T01:37:52.151Z,0.00
2023-05-15T01:38:52.152Z,0.00
2023-05-15T01:39:52.119Z,0.00
2023-05-15T01:40:52.170Z,0.00
2023-05-15T01:41:52.159Z,0.00
2023-05-15T01:42:52.152Z,0.00
2023-05-15T01:43:52.090Z,0.00
2023-05-15T01:44:52.144Z,0.00
2023-05-15T01:45:52.135Z,0.00
2023-05-15T01:46:52.149Z,0.00
2023-05-15T01:47:52.179Z,0.00
2023-05-15T01:48:52.046Z,0.00
2023-05-15T01:49:52.060Z,0.00
2023-05-15T01:50:52.032Z,0.00
2023-05-15T01:51:52.129Z,0.00
2023-05-15T01:52:52.023Z,0.00
2023-05-15T01:53:52.028Z,0.00
2023-05-15T01:54:52.021Z,0.00
2023-05-15T01:55:52.007Z,0.00
2023-05-15T01:56:51.991Z,0.00
2023-05-15T01:57:52.062Z,0.00
2023-05-15T01:58:51.981Z,0.00
2023-05-15T01:59:51.972Z,0.00
2023-05-15T02:00:51.961Z,0.00
2023-05-15T02:01:51.999Z,0.00
2023-05-15T02:02:52.019Z,0.00
2023-05-15T02:03:52.113Z,0.00
2023-05-15T02:04:51.955Z,0.00
2023-05-15T02:05:51.965Z,0.00
2023-05-15T02:06:51.959Z,0.00
2023-05-15T02:07:51.914Z,0.00
2023-05-15T02:08:51.968Z,0.00
2023-05-15T02:09:51.900Z,0.00
2023-05-15T02:10:51.925Z,0.00
2023-05-15T02:11:51.881Z,0.00
2023-05-15T02:12:51.900Z,0.00
2023-05-15T02:13:51.876Z,0.00
2023-05-15T02:14:51.915Z,0.00
2023-05-15T02:15:51.890Z,0.00
2023-05-15T02:16:51.861Z,0.00
2023-05-15T02:17:51.880Z,0.00
2023-05-15T02:18:51.911Z,0.00
2023-05-15T02:19:51.819Z,0.00
2023-05-15T02:20:52.225Z,0.00
2023-05-15T02:21:51.818Z,0.00
2023-05-15T02:22:51.831Z,0.00
2023-05-15T02:23:51.799Z,0.00
2023-05-15T02:24:51.824Z,0.00
2023-05-15T02:25:51.788Z,0.00
2023-05-15T02:26:51.794Z,0.00
2023-05-15T02:27:51.778Z,0.00
2023-05-15T02:28:51.782Z,0.00
2023-05-15T02:29:51.772Z,0.00
2023-05-15T02:30:51.780Z,0.00
2023-05-15T02:31:51.805Z,0.00
2023-05-15T02:32:51.744Z,0.00
2023-05-15T02:33:51.772Z,0.00
2023-05-15T02:34:51.715Z,0.00
2023-05-15T02:35:51.711Z,0.00
2023-05-15T02:36:51.811Z,0.00
2023-05-15T02:37:51.718Z,0.00
2023-05-15T02:38:51.730Z,0.00
2023-05-15T02:39:51.681Z,0.00
2023-05-15T02:40:51.785Z,0.00
2023-05-15T02:41:51.674Z,0.00
2023-05-15T02:42:51.715Z,0.00
2023-05-15T02:43:51.669Z,0.00
2023-05-15T02:44:51.675Z,0.00
2023-05-15T02:45:51.656Z,0.00
2023-05-15T02:46:51.635Z,0.00
2023-05-15T02:47:51.700Z,0.00
2023-05-15T02:48:51.642Z,0.00
2023-05-15T02:49:51.610Z,0.00
2023-05-15T02:50:51.656Z,0.00
2023-05-15T02:51:51.600Z,1.00
2023-05-15T02:52:51.656Z,1.00
2023-05-15T02:53:51.638Z,1.00
2023-05-15T02:54:51.585Z,0.00
2023-05-15T02:55:51.585Z,0.00
2023-05-15T02:56:51.576Z,0.00
2023-05-15T02:57:51.557Z,0.00
2023-05-15T02:58:51.570Z,1.00
2023-05-15T02:59:51.577Z,1.00
2023-05-15T03:00:51.542Z,1.00
2023-05-15T03:01:51.505Z,1.00
2023-05-15T03:02:51.568Z,2.00
2023-05-15T03:03:51.554Z,1.00
2023-05-15T03:04:51.581Z,2.00
2023-05-15T03:05:51.522Z,2.00
2023-05-15T03:06:51.530Z,2.00
2023-05-15T03:07:51.489Z,3.00
2023-05-15T03:08:51.488Z,2.00
2023-05-15T03:09:51.494Z,3.00
2023-05-15T03:10:52.199Z,5.00
2023-05-15T03:11:51.476Z,5.00
2023-05-15T03:12:51.508Z,6.00
2023-05-15T03:13:51.444Z,7.00
2023-05-15T03:14:51.445Z,6.00
2023-05-15T03:15:51.436Z,8.00
2023-05-15T03:16:51.524Z,10.00
2023-05-15T03:17:51.486Z,10.00
2023-05-15T03:18:51.560Z,11.00
2023-05-15T03:19:51.425Z,12.00
2023-05-15T03:20:51.422Z,12.00
2023-05-15T03:21:51.874Z,14.00
2023-05-15T03:22:51.420Z,18.00
2023-05-15T03:23:51.391Z,17.00
2023-05-15T03:24:51.360Z,19.00
2023-05-15T03:25:51.350Z,19.00
2023-05-15T03:26:51.359Z,23.00
2023-05-15T03:27:51.413Z,25.00
2023-05-15T03:28:51.345Z,28.00
2023-05-15T03:29:51.345Z,34.00
2023-05-15T03:30:51.336Z,39.00
2023-05-15T03:31:51.354Z,44.00
2023-05-15T03:32:51.417Z,49.00
2023-05-15T03:33:51.388Z,57.00
2023-05-15T03:34:51.420Z,63.00
2023-05-15T03:35:51.263Z,69.00
2023-05-15T03:36:51.295Z,79.00
2023-05-15T03:37:51.263Z,86.00
2023-05-15T03:38:51.245Z,96.00
2023-05-15T03:39:51.304Z,106.00
2023-05-15T03:40:51.424Z,117.00
2023-05-15T03:41:51.254Z,128.00
2023-05-15T03:42:51.295Z,142.00
2023-05-15T03:43:51.219Z,149.00
2023-05-15T03:44:51.276Z,163.00
2023-05-15T03:45:51.220Z,176.00
2023-05-15T03:46:51.303Z,190.00
2023-05-15T03:47:51.282Z,204.00
2023-05-15T03:48:51.228Z,214.00
2023-05-15T03:49:51.227Z,228.00
2023-05-15T03:50:51.208Z,241.00
2023-05-15T03:51:51.186Z,257.00
2023-05-15T03:52:51.191Z,275.00
2023-05-15T03:53:51.175Z,293.00
2023-05-15T03:54:51.156Z,314.00
2023-05-15T03:55:51.148Z,332.00
2023-05-15T03:56:51.190Z,352.00
2023-05-15T03:57:51.116Z,373.00
2023-05-15T03:58:51.107Z,396.00
2023-05-15T03:59:51.122Z,420.00
2023-05-15T04:00:51.113Z,444.00
2023-05-15T04:02:03.466Z,467.00
2023-05-15T04:02:52.243Z,486.00
2023-05-15T04:03:51.096Z,501.00
2023-05-15T04:04:51.184Z,515.00
2023-05-15T04:05:51.113Z,527.00
2023-05-15T04:06:51.051Z,537.00
2023-05-15T04:07:51.067Z,550.00
2023-05-15T04:08:51.077Z,569.00
2023-05-15T04:09:51.069Z,588.00
2023-05-15T04:10:51.058Z,604.00
2023-05-15T04:11:51.041Z,622.00
2023-05-15T04:12:51.048Z,641.00
2023-05-15T04:13:51.048Z,662.00
2023-05-15T04:14:51.007Z,680.00
2023-05-15T04:15:51.001Z,701.00
2023-05-15T04:16:51.040Z,724.00
2023-05-15T04:17:51.009Z,748.00
2023-05-15T04:18:51.093Z,763.00
2023-05-15T04:19:50.990Z,778.00
2023-05-15T04:20:50.986Z,801.00
2023-05-15T04:21:50.948Z,823.00
2023-05-15T04:22:50.931Z,841.00
2023-05-15T04:23:51.177Z,865.00
2023-05-15T04:24:50.932Z,884.00
2023-05-15T04:25:50.927Z,911.00
2023-05-15T04:26:50.949Z,935.00
2023-05-15T04:27:50.941Z,964.00
2023-05-15T04:29:02.780Z,986.00
2023-05-15T04:29:51.940Z,1015.00
2023-05-15T04:30:51.051Z,1040.00
2023-05-15T04:31:50.927Z,1047.00
2023-05-15T04:32:50.893Z,1081.00
2023-05-15T04:33:51.446Z,1082.00
2023-05-15T04:34:50.909Z,1097.00
2023-05-15T04:35:50.883Z,1107.00
2023-05-15T04:36:50.880Z,1122.00
2023-05-15T04:37:50.837Z,1131.00
2023-05-15T04:38:50.845Z,1150.00
2023-05-15T04:39:50.850Z,1158.00
2023-05-15T04:40:50.831Z,1166.00
2023-05-15T04:41:50.868Z,1178.00
2023-05-15T04:42:50.811Z,1185.00
2023-05-15T04:43:50.802Z,1192.00
2023-05-15T04:44:50.792Z,1197.00
2023-05-15T04:45:50.869Z,1217.00
2023-05-15T04:46:50.810Z,1236.00
2023-05-15T04:47:50.815Z,1231.00
2023-05-15T04:48:50.777Z,1232.00
2023-05-15T04:49:50.786Z,1240.00
2023-05-15T04:50:50.750Z,1248.00
2023-05-15T04:51:50.748Z,1259.00
2023-05-15T04:52:50.798Z,1270.00
2023-05-15T04:53:50.787Z,1279.00
2023-05-15T04:54:50.726Z,1290.00
2023-05-15T04:55:50.725Z,1301.00
2023-05-15T04:56:50.725Z,1315.00
2023-05-15T04:57:50.708Z,1331.00
2023-05-15T04:58:50.716Z,1344.00
2023-05-15T04:59:50.737Z,1357.00
2023-05-15T05:00:50.686Z,1369.00
2023-05-15T05:01:50.697Z,1383.00
2023-05-15T05:02:50.763Z,1399.00
2023-05-15T05:03:50.679Z,1415.00
2023-05-15T05:04:50.736Z,1431.00
2023-05-15T05:05:50.665Z,1445.00
2023-05-15T05:06:50.741Z,1462.00
2023-05-15T05:07:50.628Z,1473.00
2023-05-15T05:08:50.639Z,1486.00
2023-05-15T05:09:50.628Z,1498.00
2023-05-15T05:10:50.739Z,1504.00
2023-05-15T05:11:50.611Z,1515.00
2023-05-15T05:12:50.602Z,1522.00
2023-05-15T05:13:50.680Z,1518.00
2023-05-15T05:14:50.594Z,1513.00
2023-05-15T05:15:50.637Z,1530.00
2023-05-15T05:16:50.661Z,1595.00
2023-05-15T05:17:50.953Z,1606.00
2023-05-15T05:18:50.774Z,1620.00
2023-05-15T05:19:50.546Z,1633.00
2023-05-15T05:20:50.681Z,1640.00
2023-05-15T05:21:50.565Z,1646.00
2023-05-15T05:22:50.687Z,1686.00
2023-05-15T05:23:50.539Z,1696.00
2023-05-15T05:24:50.555Z,1708.00
2023-05-15T05:25:50.522Z,1727.00
2023-05-15T05:26:50.523Z,1745.00
2023-05-15T05:27:50.878Z,1769.00
2023-05-15T05:28:50.493Z,1790.00
2023-05-15T05:29:50.501Z,1814.00
2023-05-15T05:30:50.545Z,1841.00
2023-05-15T05:31:50.595Z,1869.00
2023-05-15T05:32:50.512Z,1897.00
2023-05-15T05:33:50.521Z,1942.00
2023-05-15T05:34:50.492Z,1983.00
2023-05-15T05:35:50.436Z,2000.00
2023-05-15T05:36:50.439Z,2020.00
2023-05-15T05:37:50.448Z,2036.00
2023-05-15T05:38:50.428Z,2084.00
2023-05-15T05:39:50.555Z,2110.00
2023-05-15T05:40:50.408Z,2136.00
2023-05-15T05:41:50.419Z,2162.00
2023-05-15T05:42:50.363Z,2190.00
2023-05-15T05:43:50.379Z,2220.00
2023-05-15T05:44:50.334Z,2246.00
2023-05-15T05:45:50.390Z,2276.00
2023-05-15T05:46:50.417Z,2298.00
2023-05-15T05:47:50.371Z,2314.00
2023-05-15T05:48:50.325Z,2323.00
2023-05-15T05:49:50.312Z,2346.00
2023-05-15T05:50:50.316Z,2358.00
2023-05-15T05:51:50.341Z,2370.00
2023-05-15T05:52:50.521Z,2379.00
2023-05-15T05:53:50.387Z,2376.00
2023-05-15T05:54:50.462Z,2365.00
2023-05-15T05:55:50.564Z,2360.00
2023-05-15T05:56:50.830Z,2296.00
2023-05-15T05:57:50.485Z,2198.00
2023-05-15T05:58:50.271Z,2222.00
2023-05-15T05:59:50.312Z,2354.00
2023-05-15T06:00:50.234Z,2415.00
2023-05-15T06:01:50.268Z,2430.00
2023-05-15T06:02:50.280Z,2450.00
2023-05-15T06:03:50.346Z,2450.00
2023-05-15T06:04:50.286Z,2464.00
2023-05-15T06:05:50.221Z,2481.00
2023-05-15T06:06:50.272Z,2492.00
2023-05-15T06:07:50.216Z,2501.00
2023-05-15T06:08:50.212Z,2511.00
2023-05-15T06:09:50.150Z,2517.00
2023-05-15T06:10:50.146Z,2574.00
2023-05-15T06:11:50.161Z,2656.00
2023-05-15T06:12:50.146Z,2508.00
2023-05-15T06:13:50.144Z,2515.00
2023-05-15T06:14:50.224Z,2525.00
2023-05-15T06:15:50.105Z,2525.00
2023-05-15T06:16:50.140Z,2526.00
2023-05-15T06:17:50.121Z,2543.00
2023-05-15T06:18:50.168Z,2541.00
2023-05-15T06:19:50.111Z,2548.00
2023-05-15T06:20:50.129Z,2557.00
2023-05-15T06:21:50.055Z,2565.00
2023-05-15T06:22:50.066Z,2567.00
2023-05-15T06:23:50.078Z,2564.00
2023-05-15T06:24:50.082Z,2569.00
2023-05-15T06:25:50.033Z,2575.00
2023-05-15T06:26:50.611Z,2581.00
2023-05-15T06:27:50.033Z,2585.00
2023-05-15T06:28:50.028Z,2585.00
2023-05-15T06:29:50.016Z,2518.00
2023-05-15T06:30:50.040Z,2574.00
2023-05-15T06:31:50.580Z,2580.00
2023-05-15T06:32:50.084Z,2555.00
2023-05-15T06:33:50.021Z,2565.00
2023-05-15T06:34:49.976Z,2583.00
2023-05-15T06:35:49.978Z,2568.00
2023-05-15T06:36:49.969Z,2575.00
2023-05-15T06:37:49.996Z,2571.00
2023-05-15T06:38:49.957Z,2566.00
2023-05-15T06:39:49.961Z,2583.00
2023-05-15T06:40:49.929Z,2572.00
2023-05-15T06:41:49.923Z,2557.00
2023-05-15T06:42:49.958Z,2586.00
2023-05-15T06:43:49.952Z,2604.00
2023-05-15T06:44:49.900Z,2636.00
2023-05-15T06:45:49.917Z,2641.00
2023-05-15T06:46:49.903Z,2659.00
2023-05-15T06:47:49.929Z,2689.00
2023-05-15T06:48:49.867Z,2691.00
2023-05-15T06:49:49.902Z,2668.00
2023-05-15T06:50:49.860Z,2671.00
2023-05-15T06:51:49.889Z,2682.00
2023-05-15T06:52:49.829Z,2689.00
2023-05-15T06:53:49.859Z,2694.00
2023-05-15T06:54:49.877Z,2683.00
2023-05-15T06:55:49.879Z,2716.00
2023-05-15T06:56:49.799Z,2728.00
2023-05-15T06:57:49.816Z,2740.00
2023-05-15T06:58:49.806Z,2748.00
2023-05-15T06:59:49.789Z,2745.00
2023-05-15T07:00:49.862Z,2743.00
2023-05-15T07:01:49.851Z,2753.00
2023-05-15T07:02:49.993Z,2755.00
2023-05-15T07:03:49.761Z,2795.00
2023-05-15T07:04:49.853Z,2754.00
2023-05-15T07:05:49.759Z,2765.00
2023-05-15T07:06:49.825Z,2765.00
2023-05-15T07:07:49.729Z,2762.00
2023-05-15T07:08:49.731Z,2757.00
2023-05-15T07:09:49.727Z,2757.00
2023-05-15T07:10:49.733Z,2754.00
2023-05-15T07:11:49.747Z,2770.00
2023-05-15T07:12:49.690Z,2763.00
2023-05-15T07:13:50.694Z,2765.00
2023-05-15T07:14:49.669Z,2768.00
2023-05-15T07:15:49.663Z,2772.00
2023-05-15T07:16:49.685Z,2772.00
2023-05-15T07:17:49.825Z,2780.00
2023-05-15T07:18:49.947Z,2781.00
2023-05-15T07:19:49.649Z,2787.00
2023-05-15T07:20:49.641Z,2792.00
2023-05-15T07:21:49.644Z,2794.00
2023-05-15T07:22:56.364Z,2796.00
2023-05-15T07:23:50.703Z,2801.00
2023-05-15T07:24:49.636Z,2803.00
2023-05-15T07:25:49.624Z,2803.00
2023-05-15T07:26:58.056Z,2810.00
2023-05-15T07:27:50.588Z,2816.00
2023-05-15T07:28:49.636Z,2827.00
2023-05-15T07:29:49.611Z,2830.00
2023-05-15T07:30:49.568Z,2833.00
2023-05-15T07:31:49.615Z,2836.00
2023-05-15T07:32:49.576Z,2842.00
2023-05-15T07:33:49.554Z,2853.00
2023-05-15T07:34:49.787Z,2860.00
2023-05-15T07:35:49.525Z,2868.00
2023-05-15T07:36:49.552Z,2868.00
2023-05-15T07:37:49.536Z,2848.00
2023-05-15T07:38:49.535Z,2848.00
2023-05-15T07:39:49.544Z,2849.00
2023-05-15T07:40:49.518Z,2850.00
2023-05-15T07:41:49.478Z,2852.00
2023-05-15T07:42:49.495Z,2858.00
2023-05-15T07:43:49.487Z,2877.00
2023-05-15T07:44:49.674Z,2860.00
2023-05-15T07:45:49.557Z,2864.00
2023-05-15T07:46:49.620Z,2868.00
2023-05-15T07:47:49.468Z,2880.00
2023-05-15T07:48:49.454Z,2888.00
2023-05-15T07:49:49.473Z,2896.00
2023-05-15T07:50:49.439Z,2912.00
2023-05-15T07:51:49.450Z,2927.00
2023-05-15T07:52:49.436Z,2954.00
2023-05-15T07:53:49.412Z,2938.00
2023-05-15T07:54:49.411Z,2944.00
2023-05-15T07:55:49.407Z,2954.00
2023-05-15T07:56:49.412Z,2959.00
2023-05-15T07:57:53.507Z,2960.00
2023-05-15T07:58:49.415Z,2967.00
2023-05-15T07:59:49.366Z,2973.00
2023-05-15T08:00:49.377Z,2988.00
2023-05-15T08:01:49.378Z,3060.00
2023-05-15T08:02:49.436Z,3241.00
2023-05-15T08:03:49.547Z,3258.00
2023-05-15T08:04:49.323Z,3112.00
2023-05-15T08:05:49.321Z,3121.00
2023-05-15T08:06:49.375Z,3166.00
2023-05-15T08:07:49.322Z,3120.00
2023-05-15T08:08:49.295Z,3092.00
2023-05-15T08:09:49.361Z,3092.00
2023-05-15T08:10:49.307Z,3112.00
2023-05-15T08:11:49.287Z,3121.00
2023-05-15T08:12:49.292Z,3153.00
2023-05-15T08:13:49.300Z,3160.00
2023-05-15T08:14:49.310Z,3147.00
2023-05-15T08:15:49.288Z,3156.00
2023-05-15T08:16:49.246Z,3169.00
2023-05-15T08:17:49.244Z,3181.00
2023-05-15T08:18:49.306Z,3198.00
2023-05-15T08:19:49.249Z,3213.00
2023-05-15T08:20:49.229Z,3213.00
2023-05-15T08:21:49.221Z,3244.00
2023-05-15T08:22:49.270Z,3258.00
2023-05-15T08:23:49.180Z,3275.00
2023-05-15T08:24:49.200Z,3283.00
2023-05-15T08:25:49.177Z,3294.00
2023-05-15T08:26:49.260Z,3313.00
2023-05-15T08:27:49.173Z,3317.00
2023-05-15T08:28:49.146Z,3331.00
2023-05-15T08:29:49.162Z,3348.00
2023-05-15T08:30:49.263Z,3367.00
2023-05-15T08:31:49.285Z,3379.00
2023-05-15T08:32:49.209Z,3399.00
2023-05-15T08:33:49.158Z,3427.00
2023-05-15T08:34:49.092Z,3508.00
2023-05-15T08:35:49.150Z,3685.00
2023-05-15T08:36:49.151Z,3862.00
2023-05-15T08:37:49.397Z,3935.00
2023-05-15T08:38:49.064Z,4011.00
2023-05-15T08:39:49.078Z,3827.00
2023-05-15T08:40:49.050Z,3786.00
2023-05-15T08:41:49.040Z,4312.00
2023-05-15T08:42:49.043Z,4985.00
2023-05-15T08:43:49.101Z,5452.00
2023-05-15T08:44:49.039Z,5823.00
2023-05-15T08:45:49.043Z,6460.00
2023-05-15T08:46:49.204Z,6769.00
2023-05-15T08:47:49.112Z,6704.00
2023-05-15T08:48:49.039Z,6393.00
2023-05-15T08:49:49.044Z,6379.00
2023-05-15T08:50:49.000Z,6332.00
2023-05-15T08:51:48.984Z,6176.00
2023-05-15T08:52:48.984Z,5856.00
2023-05-15T08:53:48.956Z,5478.00
2023-05-15T08:54:48.989Z,5160.00
2023-05-15T08:55:48.970Z,4919.00
2023-05-15T08:56:48.941Z,4758.00
2023-05-15T08:57:48.954Z,4640.00
2023-05-15T08:58:48.953Z,4564.00
2023-05-15T08:59:48.912Z,4526.00
2023-05-15T09:00:48.954Z,4567.00
2023-05-15T09:01:48.954Z,4631.00
2023-05-15T09:02:48.969Z,4718.00
2023-05-15T09:03:48.945Z,4834.00
2023-05-15T09:04:48.934Z,4972.00
2023-05-15T09:05:48.877Z,5149.00
2023-05-15T09:06:48.952Z,5331.00
2023-05-15T09:07:48.948Z,5518.00
2023-05-15T09:08:48.921Z,5863.00
2023-05-15T09:09:48.842Z,5844.00
2023-05-15T09:10:48.820Z,5986.00
2023-05-15T09:11:48.827Z,6090.00
2023-05-15T09:12:48.871Z,6209.00
2023-05-15T09:13:48.853Z,6342.00
2023-05-15T09:14:48.844Z,6474.00
2023-05-15T09:15:48.822Z,6604.00
2023-05-15T09:16:48.851Z,5723.00
2023-05-15T09:17:48.868Z,5408.00
2023-05-15T09:18:48.808Z,5213.00
2023-05-15T09:19:48.771Z,5297.00
2023-05-15T09:20:48.770Z,7091.00
2023-05-15T09:21:48.764Z,7043.00
2023-05-15T09:22:48.771Z,6302.00
2023-05-15T09:23:48.834Z,6069.00
2023-05-15T09:24:48.738Z,4891.00
2023-05-15T09:25:48.711Z,4900.00
2023-05-15T09:26:48.710Z,4865.00
2023-05-15T09:27:48.689Z,3919.00
2023-05-15T09:28:48.715Z,3378.00
2023-05-15T09:29:48.744Z,3015.00
2023-05-15T09:30:48.756Z,2845.00
2023-05-15T09:31:48.784Z,2654.00
2023-05-15T09:32:48.744Z,2488.00
2023-05-15T09:33:48.660Z,2355.00
2023-05-15T09:34:48.686Z,2138.00
2023-05-15T09:35:48.673Z,2059.00
2023-05-15T09:36:48.675Z,1966.00
2023-05-15T09:37:48.661Z,1833.00
2023-05-15T09:38:48.693Z,1675.00
2023-05-15T09:39:48.706Z,1535.00
2023-05-15T09:40:48.642Z,1426.00
2023-05-15T09:41:48.626Z,1360.00
2023-05-15T09:42:48.604Z,1331.00
2023-05-15T09:43:48.608Z,1340.00
2023-05-15T09:44:48.638Z,1374.00
2023-05-15T09:45:48.640Z,1405.00
2023-05-15T09:46:48.682Z,1413.00
2023-05-15T09:47:48.688Z,1417.00
2023-05-15T09:48:48.559Z,1426.00
2023-05-15T09:49:48.575Z,1438.00
2023-05-15T09:50:48.598Z,1455.00
2023-05-15T09:51:48.573Z,1485.00
2023-05-15T09:52:48.529Z,1501.00
2023-05-15T09:53:48.552Z,1537.00
2023-05-15T09:54:50.235Z,1605.00
2023-05-15T09:55:48.514Z,1643.00
2023-05-15T09:56:48.575Z,1673.00
2023-05-15T09:57:48.509Z,1705.00
2023-05-15T09:58:48.511Z,1742.00
2023-05-15T09:59:48.554Z,1772.00
2023-05-15T10:00:49.614Z,1794.00
2023-05-15T10:01:48.538Z,1818.00
2023-05-15T10:02:48.535Z,1836.00
2023-05-15T10:03:48.501Z,1855.00
2023-05-15T10:04:48.480Z,1895.00
2023-05-15T10:05:48.614Z,1945.00
2023-05-15T10:06:48.455Z,2017.00
2023-05-15T10:07:48.476Z,2088.00
2023-05-15T10:08:48.488Z,2154.00
2023-05-15T10:09:48.419Z,2233.00
2023-05-15T10:10:48.435Z,2324.00
2023-05-15T10:11:48.481Z,2416.00
2023-05-15T10:12:48.450Z,2513.00
2023-05-15T10:13:48.455Z,2610.00
2023-05-15T10:14:48.378Z,2700.00
2023-05-15T10:15:48.401Z,2803.00
2023-05-15T10:16:48.361Z,2918.00
2023-05-15T10:17:48.647Z,3039.00
2023-05-15T10:18:48.426Z,3174.00
2023-05-15T10:19:57.808Z,3329.00
2023-05-15T10:20:49.392Z,3469.00
2023-05-15T10:21:48.377Z,3611.00
2023-05-15T10:22:48.353Z,3738.00
2023-05-15T10:23:48.352Z,3882.00
2023-05-15T10:24:48.364Z,4024.00
2023-05-15T10:25:48.364Z,4161.00
2023-05-15T10:26:48.371Z,4290.00
2023-05-15T10:27:48.307Z,4413.00
2023-05-15T10:28:48.311Z,4507.00
2023-05-15T10:29:48.335Z,4598.00
2023-05-15T10:30:48.263Z,4691.00
2023-05-15T10:31:48.317Z,4781.00
2023-05-15T10:32:48.388Z,4838.00
2023-05-15T10:33:48.312Z,4876.00
2023-05-15T10:34:48.235Z,4923.00
2023-05-15T10:35:48.259Z,4962.00
2023-05-15T10:36:48.241Z,4994.00
2023-05-15T10:37:48.258Z,5013.00
2023-05-15T10:38:48.221Z,5035.00
2023-05-15T10:39:48.282Z,5031.00
2023-05-15T10:40:48.539Z,5002.00
2023-05-15T10:41:48.213Z,4967.00
2023-05-15T10:42:48.214Z,4996.00
2023-05-15T10:43:48.207Z,4932.00
2023-05-15T10:44:48.182Z,4859.00
2023-05-15T10:45:48.165Z,4774.00
2023-05-15T10:46:48.300Z,4651.00
2023-05-15T10:47:48.243Z,4562.00
2023-05-15T10:48:48.204Z,4599.00
2023-05-15T10:49:48.190Z,4638.00
2023-05-15T10:50:48.192Z,4745.00
2023-05-15T10:51:48.126Z,4812.00
2023-05-15T10:52:48.136Z,4820.00
2023-05-15T10:53:48.160Z,4919.00
2023-05-15T10:54:48.091Z,5078.00
2023-05-15T10:55:48.113Z,5129.00
2023-05-15T10:56:49.928Z,5784.00
2023-05-15T10:57:48.154Z,4806.00
2023-05-15T10:58:48.193Z,4846.00
2023-05-15T10:59:48.074Z,4061.00
2023-05-15T11:00:48.152Z,3903.00
2023-05-15T11:01:48.036Z,3780.00
2023-05-15T11:02:48.039Z,3852.00
2023-05-15T11:03:49.622Z,3991.00
2023-05-15T11:04:48.220Z,4140.00
2023-05-15T11:05:48.009Z,4218.00
2023-05-15T11:06:48.043Z,4238.00
2023-05-15T11:07:47.965Z,4224.00
2023-05-15T11:08:48.050Z,4167.00
2023-05-15T11:09:48.088Z,4159.00
2023-05-15T11:10:48.008Z,4188.00
2023-05-15T11:11:47.959Z,4259.00
2023-05-15T11:12:47.984Z,4311.00
2023-05-15T11:13:47.943Z,4448.00
2023-05-15T11:14:47.969Z,4580.00
2023-05-15T11:15:47.992Z,4729.00
2023-05-15T11:16:47.960Z,4901.00
2023-05-15T11:17:47.946Z,5096.00
2023-05-15T11:18:47.958Z,5225.00
2023-05-15T11:19:48.060Z,5175.00
2023-05-15T11:20:48.954Z,5193.00
2023-05-15T11:21:47.957Z,5154.00
2023-05-15T11:22:47.927Z,5096.00
2023-05-15T11:23:47.929Z,5066.00
2023-05-15T11:24:47.925Z,5070.00
2023-05-15T11:25:47.903Z,5152.00
2023-05-15T11:26:47.940Z,5309.00
2023-05-15T11:27:47.876Z,5469.00
2023-05-15T11:28:47.923Z,6764.00
2023-05-15T11:29:48.823Z,6621.00
2023-05-15T11:30:47.917Z,5254.00
2023-05-15T11:31:47.866Z,5406.00
2023-05-15T11:32:47.895Z,4841.00
2023-05-15T11:33:47.825Z,4682.00
2023-05-15T11:34:47.863Z,4583.00
2023-05-15T11:35:48.004Z,4537.00
2023-05-15T11:36:47.825Z,4615.00
2023-05-15T11:37:47.789Z,5053.00
2023-05-15T11:38:47.850Z,5692.00
2023-05-15T11:39:47.801Z,4825.00
2023-05-15T11:40:47.743Z,4898.00
2023-05-15T11:41:48.268Z,5650.00
2023-05-15T11:42:47.740Z,6170.00
2023-05-15T11:43:47.810Z,5755.00
2023-05-15T11:44:47.796Z,4806.00
2023-05-15T11:45:47.794Z,4782.00
2023-05-15T11:46:47.754Z,5145.00
2023-05-15T11:47:47.909Z,5749.00
2023-05-15T11:48:47.859Z,4851.00
2023-05-15T11:49:47.704Z,6240.00
2023-05-15T11:50:47.744Z,6077.00
2023-05-15T11:51:47.666Z,6057.00
2023-05-15T11:52:47.710Z,5948.00
2023-05-15T11:53:47.709Z,4934.00
2023-05-15T11:54:47.669Z,5018.00
2023-05-15T11:55:47.661Z,3973.00
2023-05-15T11:56:47.619Z,3922.00
2023-05-15T11:57:47.626Z,3735.00
2023-05-15T11:58:47.668Z,3744.00
2023-05-15T11:59:47.690Z,3816.00
2023-05-15T12:00:47.627Z,3910.00
2023-05-15T12:01:47.770Z,3989.00
2023-05-15T12:02:47.646Z,4149.00
2023-05-15T12:03:47.772Z,4289.00
2023-05-15T12:04:47.682Z,4455.00
2023-05-15T12:05:57.577Z,4597.00
2023-05-15T12:06:48.544Z,4835.00
2023-05-15T12:07:47.616Z,5021.00
2023-05-15T12:08:49.583Z,5249.00
2023-05-15T12:09:47.552Z,6511.00
2023-05-15T12:10:47.590Z,6454.00
2023-05-15T12:11:47.604Z,6295.00
2023-05-15T12:12:47.646Z,5941.00
2023-05-15T12:13:47.642Z,5903.00
2023-05-15T12:14:47.549Z,5926.00
2023-05-15T12:15:47.558Z,6765.00
2023-05-15T12:16:47.526Z,6189.00
2023-05-15T12:17:47.540Z,7372.00
2023-05-15T12:18:47.649Z,6747.00
2023-05-15T12:19:47.532Z,6782.00
2023-05-15T12:20:48.574Z,7156.00
2023-05-15T12:21:47.553Z,7751.00
2023-05-15T12:22:48.478Z,8002.00
2023-05-15T12:23:53.373Z,6907.00
2023-05-15T12:24:48.521Z,8054.00
2023-05-15T12:25:47.438Z,7971.00
2023-05-15T12:26:47.547Z,7903.00